Time;durP1;ratioP1;P1;durP2;ratioP2;P2;SDS_P1;SDS_P2;PMS_P1;PMS_P2;Temp;Humidity;BMP_temperature;BMP_pressure;BME280_temperature;BME280_humidity;BME280_pressure;Samples;Min_cycle;Max_cycle;Signal;HPM_P1;HPM_P2
2024/01/25 00:00:20;;;;;;;0.00;0.00;;;;;;;1.05;78.60;99619.22;5018591;28;20585;-75
2024/01/25 00:02:47;;;;;;;0.52;0.00;;;;;;;1.17;78.21;99644.97;5020801;28;20049;-76
2024/01/25 00:05:14;;;;;;;0.10;0.00;;;;;;;1.16;78.40;99645.81;5014992;28;20092;-76
2024/01/25 00:07:49;;;;;;;0.10;0.00;;;;;;;1.16;78.57;99661.25;5020756;28;20077;-77
2024/01/25 00:10:17;;;;;;;;;;;;;;;1.16;78.60;99677.59;5023313;28;20076;-76
2024/01/25 00:12:44;;;;;;;0.10;0.00;;;;;;;1.15;78.46;99682.75;5020054;28;19967;-76
2024/01/25 00:15:11;;;;;;;0.00;0.00;;;;;;;1.05;78.13;99668.16;5019420;28;20096;-76
2024/01/25 00:17:38;;;;;;;1.00;0.00;;;;;;;1.07;78.22;99685.31;5018415;28;20045;-76
2024/01/25 00:20:06;;;;;;;0.10;0.00;;;;;;;1.16;78.62;99707.63;5018473;28;20515;-76
2024/01/25 00:22:33;;;;;;;0.22;0.03;;;;;;;1.16;78.22;99712.78;5018990;28;20510;-76
2024/01/25 00:25:02;;;;;;;0.10;0.00;;;;;;;1.16;78.34;99720.53;5018715;28;20072;-76
2024/01/25 00:27:29;;;;;;;0.00;0.00;;;;;;;1.15;78.40;99727.41;5020363;28;20085;-76
2024/01/25 00:29:56;;;;;;;0.00;0.00;;;;;;;1.16;78.45;99728.25;5022075;28;20080;-77
2024/01/25 00:32:23;;;;;;;0.00;0.00;;;;;;;1.14;78.54;99746.31;5018770;28;20082;-77
2024/01/25 00:34:50;;;;;;;0.03;0.03;;;;;;;1.15;78.21;99749.72;5017263;28;20077;-76
2024/01/25 00:37:18;;;;;;;0.03;0.00;;;;;;;1.15;78.13;99755.72;5018939;28;20146;-76
2024/01/25 00:39:45;;;;;;;0.25;0.00;;;;;;;1.17;78.74;99771.22;5016302;28;20077;-77
2024/01/25 00:42:15;;;;;;;0.08;0.00;;;;;;;1.16;78.40;99779.78;5018451;28;20076;-76
2024/01/25 00:44:42;;;;;;;0.00;0.00;;;;;;;1.16;78.56;99790.09;5020388;28;20054;-76
2024/01/25 00:47:10;;;;;;;0.00;0.00;;;;;;;1.10;78.74;99801.25;5019106;28;20108;-77
2024/01/25 00:49:38;;;;;;;2.42;0.00;;;;;;;1.14;78.56;99818.44;5017593;28;20504;-76
2024/01/25 00:52:06;;;;;;;0.00;0.00;;;;;;;1.07;78.97;99808.13;5023497;28;20080;-81
2024/01/25 00:54:33;;;;;;;0.17;0.10;;;;;;;1.12;78.77;99833.03;5027151;28;20103;-81
2024/01/25 00:57:01;;;;;;;0.63;0.00;;;;;;;1.14;78.43;99840.78;5029472;28;20049;-81
2024/01/25 00:59:30;;;;;;;0.00;0.00;;;;;;;1.15;78.81;99852.78;5022046;28;20562;-81
2024/01/25 01:01:59;;;;;;;0.47;0.10;;;;;;;1.14;78.38;99848.50;5022248;28;20101;-79
2024/01/25 01:04:27;;;;;;;0.10;0.10;;;;;;;1.13;78.91;99864.78;5024516;28;20503;-78
2024/01/25 01:06:54;;;;;;;0.20;0.10;;;;;;;1.15;78.63;99873.41;5029286;28;20044;-78
2024/01/25 01:09:21;;;;;;;0.70;0.10;;;;;;;1.14;78.49;99882.00;5024405;28;20084;-78
2024/01/25 01:11:50;;;;;;;0.75;0.10;;;;;;;1.14;78.79;99894.88;5022730;28;20077;-78
2024/01/25 01:14:17;;;;;;;0.13;0.10;;;;;;;1.13;78.39;99901.72;5023836;28;20500;-78
2024/01/25 01:16:45;;;;;;;1.23;0.10;;;;;;;1.14;78.49;99907.75;5028577;28;20073;-78
2024/01/25 01:19:12;;;;;;;0.20;0.20;;;;;;;1.14;78.59;99902.59;5024358;28;20050;-78
2024/01/25 01:21:43;;;;;;;0.10;0.10;;;;;;;1.13;78.45;99908.59;5027830;28;20088;-78
2024/01/25 01:24:10;;;;;;;1.33;0.38;;;;;;;1.14;78.89;99915.47;5027925;28;20057;-78
2024/01/25 01:26:37;;;;;;;0.28;0.10;;;;;;;1.14;78.96;99915.47;5031969;28;20106;-78
2024/01/25 01:29:04;;;;;;;0.25;0.10;;;;;;;1.14;78.99;99924.06;5014087;28;20089;-78
2024/01/25 01:31:31;;;;;;;0.10;0.10;;;;;;;1.14;78.39;99933.53;5022867;28;20590;-79
2024/01/25 01:34:00;;;;;;;0.20;0.10;;;;;;;1.16;78.59;99939.50;5022114;28;20138;-79
2024/01/25 01:36:27;;;;;;;0.10;0.10;;;;;;;1.14;78.71;99938.66;5022905;28;20474;-78
2024/01/25 01:38:54;;;;;;;1.45;0.10;;;;;;;1.05;78.50;99938.63;5022612;28;20456;-78
2024/01/25 01:41:21;;;;;;;0.70;0.30;;;;;;;1.14;78.42;99952.41;5023968;28;20137;-78
2024/01/25 01:43:48;;;;;;;0.28;0.03;;;;;;;1.14;78.41;99970.44;5025436;28;20541;-78
2024/01/25 01:46:29;;;;;;;0.88;0.10;;;;;;;1.14;78.60;99974.75;5021716;28;20104;-78
2024/01/25 01:48:56;;;;;;;0.65;0.10;;;;;;;1.13;78.49;99973.00;5021600;28;20057;-77
2024/01/25 01:51:25;;;;;;;0.80;0.10;;;;;;;1.14;78.35;99985.91;5021767;28;20073;-78
2024/01/25 01:53:53;;;;;;;1.00;0.10;;;;;;;1.10;78.73;99988.44;5012798;28;21053;-78
2024/01/25 01:56:20;;;;;;;3.78;0.20;;;;;;;1.12;78.81;100008.22;5022171;28;20881;-78
2024/01/25 01:58:49;;;;;;;0.25;0.17;;;;;;;1.11;78.76;100006.50;5022337;28;20570;-78
2024/01/25 02:01:16;;;;;;;0.20;0.15;;;;;;;1.13;78.86;100014.22;5021670;28;20078;-76
2024/01/25 02:03:43;;;;;;;0.30;0.30;;;;;;;1.08;78.88;100013.34;5021677;28;20136;-76
2024/01/25 02:06:11;;;;;;;0.28;0.20;;;;;;;1.13;78.26;100027.97;5023024;28;20073;-77
2024/01/25 02:08:39;;;;;;;0.40;0.25;;;;;;;1.12;78.81;100028.81;5018648;28;20814;-76
2024/01/25 02:11:07;;;;;;;0.13;0.13;;;;;;;1.12;78.93;100027.97;5022977;28;20519;-76
2024/01/25 02:13:34;;;;;;;0.30;0.20;;;;;;;1.12;78.27;100041.72;5022428;28;20132;-76
2024/01/25 02:16:01;;;;;;;0.20;0.17;;;;;;;1.12;78.45;100043.44;5020592;28;20077;-76
2024/01/25 02:18:29;;;;;;;0.25;0.20;;;;;;;1.10;78.79;100045.97;5020038;28;20050;-77
2024/01/25 02:20:55;;;;;;;1.48;0.70;;;;;;;1.10;78.41;100048.56;5023447;28;20500;-77
2024/01/25 02:23:24;;;;;;;0.20;0.17;;;;;;;1.10;78.51;100058.00;5015584;28;20080;-76
2024/01/25 02:25:51;;;;;;;1.10;0.20;;;;;;;1.09;78.41;100064.88;5021397;28;20065;-76
2024/01/25 02:28:18;;;;;;;1.63;0.47;;;;;;;1.09;78.71;100075.19;5021644;28;20088;-76
2024/01/25 02:30:45;;;;;;;2.65;0.30;;;;;;;1.07;78.50;100076.03;5022112;28;20085;-77
2024/01/25 02:33:11;;;;;;;1.08;0.52;;;;;;;1.10;78.41;100088.91;5017851;28;20073;-77
2024/01/25 02:35:39;;;;;;;3.03;0.47;;;;;;;1.10;78.85;100081.19;5017357;28;20085;-77
2024/01/25 02:38:06;;;;;;;1.45;0.20;;;;;;;1.09;78.77;100100.09;5026268;28;20080;-76
2024/01/25 02:40:34;;;;;;;1.00;0.20;;;;;;;1.09;78.86;100100.09;5022145;28;20132;-76
2024/01/25 02:43:01;;;;;;;1.05;0.20;;;;;;;1.09;78.87;100102.66;5013512;28;20089;-76
2024/01/25 02:45:28;;;;;;;0.35;0.30;;;;;;;1.08;78.58;100119.84;5019090;28;20120;-76
2024/01/25 02:47:55;;;;;;;0.50;0.28;;;;;;;1.08;78.79;100116.38;5019912;28;20084;-76
2024/01/25 02:50:22;;;;;;;0.35;0.13;;;;;;;1.08;78.78;100134.41;5021905;28;20471;-76
2024/01/25 02:52:49;;;;;;;0.57;0.17;;;;;;;1.07;78.84;100137.84;5025297;28;20134;-76
2024/01/25 02:55:19;;;;;;;0.30;0.10;;;;;;;1.06;78.59;100136.16;5021019;28;20469;-77
2024/01/25 02:57:48;;;;;;;0.55;0.25;;;;;;;1.05;78.50;100139.56;5015592;28;20085;-76
2024/01/25 03:00:15;;;;;;;1.30;0.30;;;;;;;1.03;78.68;100158.44;5023805;28;20085;-76
2024/01/25 03:02:42;;;;;;;1.63;0.20;;;;;;;1.05;78.77;100157.59;5020267;28;20048;-77
2024/01/25 03:05:09;;;;;;;1.98;0.20;;;;;;;1.04;78.80;100164.47;5022754;28;20108;-76
2024/01/25 03:07:36;;;;;;;1.80;0.43;;;;;;;1.05;78.91;100175.63;5022873;28;20141;-76
2024/01/25 03:10:03;;;;;;;0.50;0.30;;;;;;;1.01;78.29;100169.59;5023697;28;20131;-76
2024/01/25 03:12:30;;;;;;;0.70;0.20;;;;;;;1.02;78.69;100185.06;5015467;28;20092;-77
2024/01/25 03:14:58;;;;;;;1.05;0.20;;;;;;;1.02;78.53;100192.81;5016355;28;20176;-77
2024/01/25 03:17:25;;;;;;;1.17;0.20;;;;;;;1.00;78.65;100202.22;5025902;28;20124;-76
2024/01/25 03:19:52;;;;;;;0.20;0.10;;;;;;;1.01;78.38;100209.09;5021865;28;20140;-76
2024/01/25 03:22:19;;;;;;;1.10;0.15;;;;;;;1.01;78.79;100218.53;5020130;28;20071;-76
2024/01/25 03:24:46;;;;;;;1.05;0.20;;;;;;;0.99;78.71;100234.00;5018988;28;20090;-76
2024/01/25 03:27:14;;;;;;;2.35;0.10;;;;;;;0.99;78.89;100238.25;5019253;28;20507;-76
2024/01/25 03:29:43;;;;;;;1.05;0.10;;;;;;;0.99;78.52;100239.16;5023394;28;20061;-76
2024/01/25 03:32:12;;;;;;;0.10;0.10;;;;;;;0.99;78.68;100244.31;5020945;28;20050;-76
2024/01/25 03:34:39;;;;;;;1.65;0.10;;;;;;;0.99;78.82;100244.31;5024369;28;20136;-76
2024/01/25 03:37:06;;;;;;;0.30;0.10;;;;;;;0.99;78.42;100253.72;5022301;28;20127;-76
2024/01/25 03:39:33;;;;;;;0.10;0.00;;;;;;;0.97;78.80;100271.75;5021719;28;20072;-76
2024/01/25 03:42:00;;;;;;;0.05;0.00;;;;;;;0.94;78.18;100271.72;5019581;28;20504;-75
2024/01/25 03:44:27;;;;;;;0.40;0.10;;;;;;;0.96;78.57;100285.50;5017577;28;20080;-76
2024/01/25 03:46:54;;;;;;;1.58;0.15;;;;;;;0.95;78.33;100285.47;5018772;28;20076;-77
2024/01/25 03:49:22;;;;;;;0.10;0.10;;;;;;;0.94;78.51;100294.91;5018892;28;20355;-76
2024/01/25 03:51:50;;;;;;;2.00;0.10;;;;;;;0.93;78.61;100306.03;5019017;28;20061;-76
2024/01/25 03:54:17;;;;;;;0.25;0.13;;;;;;;0.93;78.32;100305.19;5020128;28;20054;-76
2024/01/25 03:56:44;;;;;;;0.45;0.10;;;;;;;0.93;78.19;100310.34;5017871;28;20581;-77
2024/01/25 03:59:13;;;;;;;0.20;0.10;;;;;;;0.91;78.50;100317.22;5019773;28;20153;-76
2024/01/25 04:01:44;;;;;;;0.40;0.10;;;;;;;0.89;78.52;100327.47;5019675;28;20489;-76
2024/01/25 04:04:12;;;;;;;0.22;0.15;;;;;;;0.87;78.26;100330.88;5020985;28;20053;-76
2024/01/25 04:06:42;;;;;;;0.30;0.17;;;;;;;0.86;78.47;100344.63;5020009;28;20049;-76
2024/01/25 04:09:09;;;;;;;1.75;1.15;;;;;;;0.82;77.75;100346.28;5023064;28;20061;-77
2024/01/25 04:11:37;;;;;;;0.77;0.20;;;;;;;0.80;77.99;100355.72;5019968;28;20073;-76
2024/01/25 04:14:04;;;;;;;0.20;0.10;;;;;;;0.78;78.28;100362.56;5019871;28;20077;-76
2024/01/25 04:16:32;;;;;;;0.50;0.20;;;;;;;0.78;78.19;100372.88;5017078;28;20104;-77
2024/01/25 04:18:59;;;;;;;0.20;0.10;;;;;;;0.78;78.25;100373.72;5023114;28;20080;-76
2024/01/25 04:21:26;;;;;;;1.40;0.17;;;;;;;0.74;77.97;100371.13;5023702;28;20077;-76
2024/01/25 04:23:54;;;;;;;1.38;0.35;;;;;;;0.77;78.01;100386.59;5019326;28;20477;-77
2024/01/25 04:26:21;;;;;;;1.63;0.35;;;;;;;0.76;77.91;100382.28;5018992;28;20081;-76
2024/01/25 04:28:48;;;;;;;0.43;0.20;;;;;;;0.75;78.23;100398.59;5020379;28;20093;-76
2024/01/25 04:31:15;;;;;;;0.40;0.20;;;;;;;0.75;78.35;100403.75;5021956;28;20080;-77
2024/01/25 04:33:43;;;;;;;1.40;0.20;;;;;;;0.75;77.88;100396.00;5022436;28;20069;-77
2024/01/25 04:36:09;;;;;;;2.88;0.20;;;;;;;0.74;78.22;100405.44;5018839;28;20077;-77
2024/01/25 04:38:36;;;;;;;0.52;0.13;;;;;;;0.71;78.20;100407.13;5022510;28;20112;-77
2024/01/25 04:41:05;;;;;;;2.33;0.30;;;;;;;0.75;77.67;100426.91;5023387;28;20495;-76
2024/01/25 04:43:36;;;;;;;0.50;0.20;;;;;;;0.75;78.17;100434.63;5023530;28;20045;-76
2024/01/25 04:46:03;;;;;;;0.85;0.20;;;;;;;0.73;78.22;100444.03;5019492;28;20053;-77
2024/01/25 04:48:30;;;;;;;0.60;0.20;;;;;;;0.73;78.11;100449.19;5021932;28;20076;-77
2024/01/25 04:50:59;;;;;;;0.95;0.28;;;;;;;0.72;78.12;100460.34;5024794;28;20470;-77
2024/01/25 04:53:26;;;;;;;0.90;0.20;;;;;;;0.72;77.55;100465.50;5020322;28;20048;-77
2024/01/25 04:55:54;;;;;;;1.75;0.20;;;;;;;0.72;78.08;100475.81;5018738;28;20072;-76
2024/01/25 04:58:23;;;;;;;0.20;0.10;;;;;;;0.72;78.20;100486.09;5019449;28;20492;-77
2024/01/25 05:00:52;;;;;;;0.50;0.13;;;;;;;0.71;77.91;100490.41;5021763;28;20081;-76
2024/01/25 05:03:19;;;;;;;2.60;0.20;;;;;;;0.71;77.88;100502.41;5023525;28;20049;-76
2024/01/25 05:05:46;;;;;;;0.75;0.20;;;;;;;0.70;78.00;100503.22;5017017;28;20516;-76
2024/01/25 05:08:13;;;;;;;0.40;0.20;;;;;;;0.70;78.01;100513.53;5020573;28;20648;-77
2024/01/25 05:10:40;;;;;;;0.65;0.25;;;;;;;0.69;77.99;100507.53;5022112;28;20152;-76
2024/01/25 05:13:07;;;;;;;3.30;0.25;;;;;;;0.69;77.81;100529.84;5014858;28;20082;-76
2024/01/25 05:15:35;;;;;;;1.30;0.20;;;;;;;0.68;77.26;100520.38;5017887;28;20127;-76
2024/01/25 05:18:02;;;;;;;1.30;0.25;;;;;;;0.66;77.68;100525.50;5021824;28;20073;-77
2024/01/25 05:20:32;;;;;;;0.77;0.10;;;;;;;0.64;77.54;100528.91;5023334;28;20128;-76
2024/01/25 05:22:59;;;;;;;1.85;0.17;;;;;;;0.60;77.43;100525.44;5023288;28;20180;-77
2024/01/25 05:25:27;;;;;;;3.03;0.10;;;;;;;0.64;77.33;100539.19;5021014;28;20080;-77
2024/01/25 05:27:54;;;;;;;1.45;0.20;;;;;;;0.64;77.53;100542.63;5019735;28;20041;-77
2024/01/25 05:30:21;;;;;;;1.85;0.20;;;;;;;0.64;77.37;100554.66;5001142;28;20068;-78
2024/01/25 05:32:50;;;;;;;0.88;0.28;;;;;;;0.61;77.80;100554.59;5007997;28;20077;-79
2024/01/25 05:35:18;;;;;;;1.40;0.20;;;;;;;0.62;77.54;100556.31;5000384;28;20042;-79
2024/01/25 05:37:45;;;;;;;3.40;0.25;;;;;;;0.62;77.60;100562.34;4998646;28;20050;-78
2024/01/25 05:40:12;;;;;;;6.28;0.20;;;;;;;0.58;77.95;100569.16;5005512;28;20125;-75
2024/01/25 05:42:40;;;;;;;2.08;0.20;;;;;;;0.60;77.88;100579.50;4996919;28;20172;-74
2024/01/25 05:45:08;;;;;;;0.57;0.20;;;;;;;0.58;77.60;100571.72;4994778;28;20049;-75
2024/01/25 05:47:35;;;;;;;0.20;0.17;;;;;;;0.61;77.89;100586.38;4996132;28;20537;-74
2024/01/25 05:50:05;;;;;;;1.00;0.30;;;;;;;0.54;77.50;100587.13;4988196;28;20074;-75
2024/01/25 05:52:32;;;;;;;0.45;0.22;;;;;;;0.60;77.87;100597.50;4999475;28;20046;-75
2024/01/25 05:54:59;;;;;;;0.63;0.40;;;;;;;0.61;77.23;100618.97;4994012;28;20129;-75
2024/01/25 05:57:26;;;;;;;1.38;0.38;;;;;;;0.56;77.61;100609.44;4995467;28;20177;-75
2024/01/25 05:59:53;;;;;;;0.85;0.30;;;;;;;0.60;77.41;100619.81;4996280;28;20538;-75
2024/01/25 06:02:19;;;;;;;1.15;0.38;;;;;;;0.60;77.34;100620.69;4994958;28;20088;-75
2024/01/25 06:04:46;;;;;;;0.50;0.25;;;;;;;0.61;77.37;100637.00;4998999;28;20081;-75
2024/01/25 06:07:15;;;;;;;1.17;0.22;;;;;;;0.61;77.28;100639.56;4999563;28;20186;-75
2024/01/25 06:09:42;;;;;;;0.95;0.40;;;;;;;0.58;77.28;100643.81;5004951;28;20081;-75
2024/01/25 06:12:09;;;;;;;0.50;0.28;;;;;;;0.58;77.03;100654.13;4998598;28;20088;-76
2024/01/25 06:14:36;;;;;;;0.85;0.40;;;;;;;0.53;77.52;100655.75;5000728;28;20117;-75
2024/01/25 06:17:03;;;;;;;2.55;0.40;;;;;;;0.56;77.72;100671.22;4998375;28;20046;-74
2024/01/25 06:19:30;;;;;;;1.85;0.40;;;;;;;0.56;77.14;100676.38;4998760;28;20050;-75
2024/01/25 06:21:57;;;;;;;4.32;0.40;;;;;;;0.56;77.40;100681.53;4997349;28;20073;-74
2024/01/25 06:24:25;;;;;;;1.00;0.40;;;;;;;0.55;76.91;100689.25;5000260;28;20489;-74
2024/01/25 06:26:53;;;;;;;0.30;0.20;;;;;;;0.53;77.40;100699.50;4995829;28;20132;-74
2024/01/25 06:29:20;;;;;;;0.43;0.30;;;;;;;0.54;77.46;100703.84;4999994;28;20148;-74
2024/01/25 06:31:47;;;;;;;0.40;0.30;;;;;;;0.51;77.03;100703.78;5013912;28;20088;-74
2024/01/25 06:34:14;;;;;;;1.55;0.38;;;;;;;0.48;77.55;100719.19;5013846;28;20840;-74
2024/01/25 06:36:41;;;;;;;0.68;0.32;;;;;;;0.50;77.28;100722.63;5020836;28;20088;-76
2024/01/25 06:39:08;;;;;;;1.00;0.40;;;;;;;0.43;77.03;100718.22;5020049;28;20082;-75
2024/01/25 06:41:37;;;;;;;1.48;0.30;;;;;;;0.51;76.93;100734.69;5008532;28;20088;-77
2024/01/25 06:44:04;;;;;;;2.90;0.40;;;;;;;0.48;77.04;100731.16;5014189;28;20472;-77
2024/01/25 06:46:31;;;;;;;0.47;0.30;;;;;;;0.51;77.06;100744.13;5023051;28;20493;-76
2024/01/25 06:48:57;;;;;;;0.40;0.30;;;;;;;0.51;77.35;100754.41;5022211;28;20082;-77
2024/01/25 06:51:25;;;;;;;3.83;0.30;;;;;;;0.49;77.30;100751.78;5026260;28;20089;-78
2024/01/25 06:53:51;;;;;;;0.80;0.40;;;;;;;0.49;77.54;100753.50;5021961;28;20136;-78
2024/01/25 06:56:18;;;;;;;0.63;0.30;;;;;;;0.49;77.00;100758.66;5029368;28;20500;-73
2024/01/25 06:58:47;;;;;;;1.00;0.30;;;;;;;0.49;76.97;100774.97;5023291;28;20077;-76
2024/01/25 07:01:14;;;;;;;0.70;0.28;;;;;;;0.45;77.27;100769.72;5020797;28;20140;-76
2024/01/25 07:03:41;;;;;;;0.55;0.25;;;;;;;0.44;77.54;100784.28;5018481;28;20133;-75
2024/01/25 07:06:08;;;;;;;0.38;0.30;;;;;;;0.46;76.89;100790.34;5023031;28;20139;-75
2024/01/25 07:08:35;;;;;;;2.78;0.30;;;;;;;0.47;77.49;100799.78;5020045;28;20077;-76
2024/01/25 07:11:02;;;;;;;0.30;0.20;;;;;;;0.47;77.35;100799.78;5021835;28;20084;-74
2024/01/25 07:13:29;;;;;;;1.45;0.30;;;;;;;0.45;77.31;100816.94;5019249;28;20068;-75
2024/01/25 07:15:57;;;;;;;0.50;0.20;;;;;;;0.44;77.56;100817.75;5020422;28;20386;-76
2024/01/25 07:18:25;;;;;;;1.48;0.35;;;;;;;0.43;76.87;100823.75;5020724;28;20045;-76
2024/01/25 07:20:52;;;;;;;0.65;0.40;;;;;;;0.38;76.95;100819.34;5021045;28;20045;-77
2024/01/25 07:23:19;;;;;;;0.63;0.10;;;;;;;0.41;77.19;100840.88;5013991;28;20041;-78
2024/01/25 07:25:46;;;;;;;0.20;0.20;;;;;;;0.40;76.98;100839.16;5023175;28;20504;-77
2024/01/25 07:28:13;;;;;;;0.70;0.20;;;;;;;0.39;76.71;100850.25;5024365;28;20041;-80
2024/01/25 07:30:40;;;;;;;0.93;0.10;;;;;;;0.39;76.61;100868.28;5019929;28;20057;-77
2024/01/25 07:33:09;;;;;;;0.10;0.10;;;;;;;0.37;76.59;100867.41;5018277;28;20061;-77
2024/01/25 07:35:36;;;;;;;0.20;0.10;;;;;;;0.35;76.41;100882.78;5013782;28;20461;-78
2024/01/25 07:38:03;;;;;;;0.70;0.10;;;;;;;0.33;76.41;100881.88;5011140;28;20547;-77
2024/01/25 07:40:30;;;;;;;0.35;0.10;;;;;;;0.32;76.28;100871.56;5021377;28;20084;-77
2024/01/25 07:42:57;;;;;;;0.30;0.20;;;;;;;0.31;76.29;100885.28;5015991;28;20088;-77
2024/01/25 07:45:24;;;;;;;0.38;0.17;;;;;;;0.28;76.68;100893.81;5015390;28;20077;-76
2024/01/25 07:47:51;;;;;;;0.30;0.10;;;;;;;0.28;76.71;100903.22;5022449;28;20069;-77
2024/01/25 07:50:19;;;;;;;2.53;0.15;;;;;;;0.27;76.23;100919.50;5015036;28;20508;-76
2024/01/25 07:52:46;;;;;;;0.20;0.10;;;;;;;0.25;76.25;100922.06;5019283;28;20503;-74
2024/01/25 07:55:13;;;;;;;0.10;0.00;;;;;;;0.24;76.16;100920.28;5023292;28;20045;-78
2024/01/25 07:57:40;;;;;;;0.20;0.10;;;;;;;0.22;76.48;100927.09;5009916;28;20041;-74
2024/01/25 08:00:08;;;;;;;0.20;0.10;;;;;;;0.18;76.60;100933.03;5012158;28;20487;-77
2024/01/25 08:02:35;;;;;;;0.85;0.10;;;;;;;0.22;76.43;100944.25;5007806;28;20077;-80
2024/01/25 08:05:03;;;;;;;0.10;0.10;;;;;;;0.19;76.08;100952.78;5018745;28;20092;-78
2024/01/25 08:07:31;;;;;;;2.70;0.20;;;;;;;0.15;76.00;100950.97;5028129;28;20041;-78
2024/01/25 08:09:58;;;;;;;0.00;0.00;;;;;;;0.16;75.86;100963.00;5022352;28;20394;-78
2024/01/25 08:12:25;;;;;;;0.32;0.10;;;;;;;0.16;75.70;100969.84;5020469;28;20053;-77
2024/01/25 08:14:52;;;;;;;0.10;0.00;;;;;;;0.15;75.89;100970.69;5012979;28;20069;-77
2024/01/25 08:17:20;;;;;;;0.63;0.10;;;;;;;0.13;75.79;100968.94;5014440;28;20077;-77
2024/01/25 08:19:47;;;;;;;0.00;0.00;;;;;;;0.07;76.02;100966.22;5018420;28;20420;-77
2024/01/25 08:22:14;;;;;;;0.10;0.00;;;;;;;0.09;75.91;100980.00;5022889;28;20041;-76
2024/01/25 08:24:43;;;;;;;0.63;0.03;;;;;;;0.09;76.25;100992.88;5022111;28;20077;-76
2024/01/25 08:27:10;;;;;;;0.00;0.00;;;;;;;-0.00;75.64;100986.66;5019494;28;20058;-78
2024/01/25 08:29:37;;;;;;;0.77;0.10;;;;;;;0.07;75.75;100998.81;5014841;28;20559;-77
2024/01/25 08:32:05;;;;;;;0.32;0.10;;;;;;;0.06;75.59;101012.50;5024992;28;20053;-78
2024/01/25 08:34:32;;;;;;;0.00;0.00;;;;;;;0.04;75.39;101017.59;5025099;28;20073;-77
2024/01/25 08:36:59;;;;;;;0.00;0.00;;;;;;;0.02;75.48;101033.84;5017295;28;20091;-76
2024/01/25 08:39:26;;;;;;;1.35;0.00;;;;;;;0.01;75.49;101034.69;5012417;28;20125;-75
2024/01/25 08:41:54;;;;;;;0.73;0.00;;;;;;;0.01;76.33;101035.53;5013952;28;20539;-76
2024/01/25 08:44:21;;;;;;;0.10;0.00;;;;;;;0.00;75.49;101041.53;5023552;28;20054;-79
2024/01/25 08:46:48;;;;;;;1.30;0.03;;;;;;;-0.00;75.96;101053.53;5012605;28;20081;-80
2024/01/25 08:49:15;;;;;;;0.00;0.00;;;;;;;-0.00;75.74;101056.09;5021785;28;20092;-76
2024/01/25 08:51:42;;;;;;;2.05;0.05;;;;;;;0.00;75.75;101056.97;5022174;28;20133;-76
2024/01/25 08:54:09;;;;;;;1.27;0.08;;;;;;;0.01;76.17;101060.41;5013562;28;20132;-75
2024/01/25 08:56:36;;;;;;;0.45;0.05;;;;;;;0.02;76.35;101067.28;5018563;28;20057;-75
2024/01/25 08:59:05;;;;;;;1.70;0.00;;;;;;;0.02;76.17;101075.00;5018365;28;20595;-76
2024/01/25 09:01:32;;;;;;;0.20;0.10;;;;;;;0.03;76.09;101080.19;5016868;28;20077;-77
2024/01/25 09:04:02;;;;;;;0.10;0.00;;;;;;;0.03;75.81;101087.91;5022855;28;20088;-77
2024/01/25 09:06:30;;;;;;;0.65;0.10;;;;;;;0.04;75.86;101087.06;5019334;28;20042;-77
2024/01/25 09:08:57;;;;;;;2.95;0.10;;;;;;;0.04;75.98;101094.78;5020829;28;20480;-75
2024/01/25 09:11:24;;;;;;;0.10;0.10;;;;;;;0.04;75.84;101096.50;5018084;28;20053;-74
2024/01/25 09:13:51;;;;;;;0.30;0.30;;;;;;;0.04;76.42;101092.22;5015117;28;20061;-74
2024/01/25 09:16:19;;;;;;;1.75;0.10;;;;;;;0.05;76.28;101098.22;5019640;28;20100;-75
2024/01/25 09:18:46;;;;;;;0.17;0.10;;;;;;;0.04;76.51;101107.66;5019547;28;20045;-75
2024/01/25 09:21:13;;;;;;;2.28;0.10;;;;;;;0.06;76.21;101110.28;5015154;28;20129;-75
2024/01/25 09:23:40;;;;;;;1.33;0.20;;;;;;;0.05;75.78;101124.84;5016856;28;20093;-75
2024/01/25 09:26:08;;;;;;;0.77;0.13;;;;;;;0.06;76.05;101136.88;5016739;28;20077;-75
2024/01/25 09:28:35;;;;;;;0.63;0.17;;;;;;;0.02;76.24;101140.16;5020588;28;20049;-74
2024/01/25 09:31:02;;;;;;;2.05;0.10;;;;;;;0.05;76.02;101145.44;5018362;28;20058;-74
2024/01/25 09:33:31;;;;;;;2.30;0.15;;;;;;;0.06;75.88;101149.72;5011356;28;20050;-75
2024/01/25 09:35:58;;;;;;;0.20;0.10;;;;;;;0.07;76.22;101151.47;5017739;28;20088;-75
2024/01/25 09:38:25;;;;;;;4.15;0.20;;;;;;;0.08;75.96;101145.50;5021088;28;20077;-75
2024/01/25 09:40:52;;;;;;;1.20;0.20;;;;;;;0.09;76.13;101154.09;5022810;28;20104;-74
2024/01/25 09:43:19;;;;;;;0.68;0.17;;;;;;;0.10;76.32;101171.25;5023765;28;20049;-75
2024/01/25 09:45:50;;;;;;;0.90;0.25;;;;;;;0.12;76.36;101173.03;5014980;28;20136;-74
2024/01/25 09:48:17;;;;;;;2.40;0.30;;;;;;;0.12;75.95;101179.88;5018790;28;20046;-74
2024/01/25 09:50:48;;;;;;;0.20;0.17;;;;;;;0.14;76.75;101188.53;5019847;28;20081;-74
2024/01/25 09:53:21;;;;;;;1.13;0.20;;;;;;;0.16;76.37;101193.69;5020764;28;20109;-75
2024/01/25 09:55:56;;;;;;;0.73;0.30;;;;;;;0.18;75.90;101192.03;5020978;28;20084;-75
2024/01/25 09:58:25;;;;;;;0.40;0.20;;;;;;;0.17;76.36;101196.31;5018821;28;20141;-74
2024/01/25 10:00:52;;;;;;;1.20;0.30;;;;;;;0.15;76.61;101197.13;5017456;28;20611;-74
2024/01/25 10:03:19;;;;;;;0.30;0.20;;;;;;;0.18;76.33;101210.94;5018830;28;20045;-77
2024/01/25 10:05:47;;;;;;;0.40;0.20;;;;;;;0.20;76.20;101205.84;5020739;28;20130;-79
2024/01/25 10:08:14;;;;;;;1.08;0.20;;;;;;;0.20;76.04;101203.25;5019533;28;20049;-78
2024/01/25 10:10:41;;;;;;;2.00;0.30;;;;;;;0.20;76.35;101204.13;5021540;28;20045;-85
2024/01/25 10:13:13;;;;;;;3.72;0.40;;;;;;;0.20;76.02;101211.84;5020250;28;20512;-83
2024/01/25 10:15:41;;;;;;;0.32;0.20;;;;;;;0.21;75.92;101212.72;5025479;28;20041;-85
2024/01/25 10:18:12;;;;;;;0.98;0.55;;;;;;;0.22;75.96;101222.16;5020421;28;20124;-88
2024/01/25 10:20:40;;;;;;;1.60;0.30;;;;;;;0.19;76.21;101229.81;5020410;28;20484;-74
2024/01/25 10:23:08;;;;;;;0.30;0.20;;;;;;;0.21;76.00;101238.44;5013470;28;20056;-74
2024/01/25 10:25:36;;;;;;;0.80;0.25;;;;;;;0.20;75.72;101234.13;5021810;28;20072;-77
2024/01/25 10:28:03;;;;;;;2.28;0.40;;;;;;;0.20;75.61;101245.31;5006890;28;20049;-77
2024/01/25 10:30:34;;;;;;;1.08;0.30;;;;;;;0.22;76.17;101255.63;5024139;28;20088;-77
2024/01/25 10:33:01;;;;;;;0.82;0.30;;;;;;;0.21;75.92;101259.91;5023336;28;20512;-76
2024/01/25 10:35:28;;;;;;;1.90;0.40;;;;;;;0.23;75.76;101268.53;5020927;28;20073;-77
2024/01/25 10:37:55;;;;;;;1.45;0.50;;;;;;;0.24;75.89;101264.25;5019342;28;20508;-77
2024/01/25 10:40:24;;;;;;;1.60;0.38;;;;;;;0.23;76.01;101270.25;5022386;28;20153;-76
2024/01/25 10:42:51;;;;;;;1.98;0.43;;;;;;;0.23;76.21;101268.53;5023346;28;20633;-77
2024/01/25 10:45:18;;;;;;;1.63;0.60;;;;;;;0.25;75.92;101286.59;5018121;28;20049;-77
2024/01/25 10:47:49;;;;;;;0.80;0.40;;;;;;;0.25;75.49;101296.88;5020003;28;20084;-77
2024/01/25 10:50:16;;;;;;;2.35;0.70;;;;;;;0.25;75.75;101292.63;5023129;28;20107;-76
2024/01/25 10:52:44;;;;;;;3.63;0.57;;;;;;;0.25;75.90;101305.50;5017979;28;20057;-76
2024/01/25 10:55:13;;;;;;;0.50;0.30;;;;;;;0.23;75.85;101306.28;5028682;28;20076;-80
2024/01/25 10:57:45;;;;;;;2.05;0.50;;;;;;;0.24;75.67;101310.59;5020353;28;20069;-80
2024/01/25 11:00:14;;;;;;;1.23;0.50;;;;;;;0.27;75.86;101320.97;5027358;28;20089;-80
2024/01/25 11:02:42;;;;;;;2.17;0.50;;;;;;;0.27;75.57;101324.41;5014398;28;20472;-79
2024/01/25 11:05:11;;;;;;;0.80;0.73;;;;;;;0.27;75.89;101333.84;5021403;28;20381;-79
2024/01/25 11:07:46;;;;;;;2.28;0.50;;;;;;;0.27;75.40;101324.41;5026155;28;20430;-78
2024/01/25 11:10:16;;;;;;;0.70;0.40;;;;;;;0.26;75.51;101335.53;5023711;28;20100;-79
2024/01/25 11:12:52;;;;;;;1.55;0.50;;;;;;;0.27;75.53;101345.00;5022855;28;20299;-79
2024/01/25 11:15:23;;;;;;;1.25;0.80;;;;;;;0.26;75.50;101334.66;5027707;28;20050;-79
2024/01/25 11:17:55;;;;;;;2.05;0.70;;;;;;;0.27;75.62;101336.41;5021735;28;20046;-79
2024/01/25 11:20:23;;;;;;;1.02;0.70;;;;;;;0.26;75.75;101350.09;5024581;28;20476;-80
2024/01/25 11:22:55;;;;;;;3.08;1.00;;;;;;;0.22;75.72;101340.53;5011939;28;20046;-82
2024/01/25 11:25:22;;;;;;;1.25;0.60;;;;;;;0.28;75.28;101358.72;5020547;28;20077;-81
2024/01/25 11:27:51;;;;;;;3.30;0.70;;;;;;;0.24;75.87;101346.63;5022389;28;20100;-81
2024/01/25 11:30:19;;;;;;;2.60;0.68;;;;;;;0.27;75.42;101363.00;5025300;28;20056;-76
2024/01/25 11:32:47;;;;;;;1.00;0.50;;;;;;;0.26;75.40;101369.00;5023301;28;20064;-79
2024/01/25 11:35:16;;;;;;;1.10;0.50;;;;;;;0.25;74.95;101374.97;5008529;28;20046;-77